Terminal Aerodrome Forecast
Issued by NWS Rapid City, SD

Home | Current Version | Previous Version | Graphics & Text | Print | Product List | Glossary On
Versions: 1 2 3 4 5 6 7 8 9 10 11 12 13 14 15 16 17 18 19 20 21 22 23
000
FTUS43 KUNR 231734
TAFRAP
TAF
KRAP 231734Z 2318/2418 35015KT P6SM OVC008
     FM232100 35009KT P6SM OVC006
     FM232300 34008KT 2SM -RA BR OVC004
     FM240400 34014KT 5SM -RA BR OVC006
     FM241200 34014G22KT 5SM -RA BR OVC008=

USA.gov is the U.S. government's official web portal to all federal, state and local government web resources and services.